sensor_id;sensor_type;location;lat;lon;timestamp;pressure;altitude;pressure_sealevel;temperature;humidity
5455;BME280;2750;49.050;9.250;2023-04-25T00:04:36;98153.13;;;11.70;85.15
5455;BME280;2750;49.050;9.250;2023-04-25T00:09:39;98147.69;;;11.61;85.96
5455;BME280;2750;49.050;9.250;2023-04-25T00:14:40;98149.63;;;11.85;84.93
5455;BME280;2750;49.050;9.250;2023-04-25T00:19:43;98151.03;;;11.91;85.05
5455;BME280;2750;49.050;9.250;2023-04-25T00:24:46;98147.00;;;12.00;84.49
5455;BME280;2750;49.050;9.250;2023-04-25T00:29:47;98145.34;;;11.84;84.59
5455;BME280;2750;49.050;9.250;2023-04-25T00:34:50;98133.66;;;11.63;84.45
5455;BME280;2750;49.050;9.250;2023-04-25T00:39:52;98131.31;;;11.59;84.59
5455;BME280;2750;49.050;9.250;2023-04-25T00:44:54;98127.34;;;11.39;84.09
5455;BME280;2750;49.050;9.250;2023-04-25T00:49:57;98119.28;;;11.29;84.24
5455;BME280;2750;49.050;9.250;2023-04-25T00:54:59;98113.34;;;11.41;84.22
5455;BME280;2750;49.050;9.250;2023-04-25T01:00:01;98117.72;;;11.27;84.05
5455;BME280;2750;49.050;9.250;2023-04-25T01:05:05;98114.50;;;10.79;86.15
5455;BME280;2750;49.050;9.250;2023-04-25T01:10:07;98104.63;;;10.70;86.55
5455;BME280;2750;49.050;9.250;2023-04-25T01:15:09;98102.38;;;10.50;86.68
5455;BME280;2750;49.050;9.250;2023-04-25T01:20:13;98105.41;;;10.86;86.17
5455;BME280;2750;49.050;9.250;2023-04-25T01:25:17;98096.50;;;10.76;86.22
5455;BME280;2750;49.050;9.250;2023-04-25T01:30:18;98099.41;;;10.56;86.14
5455;BME280;2750;49.050;9.250;2023-04-25T01:35:20;98095.78;;;10.88;85.76
5455;BME280;2750;49.050;9.250;2023-04-25T01:40:24;98104.94;;;10.80;85.76
5455;BME280;2750;49.050;9.250;2023-04-25T01:45:25;98108.59;;;11.06;85.26
5455;BME280;2750;49.050;9.250;2023-04-25T01:50:27;98106.91;;;10.90;84.96
5455;BME280;2750;49.050;9.250;2023-04-25T01:55:30;98104.88;;;10.95;85.30
5455;BME280;2750;49.050;9.250;2023-04-25T02:00:32;98097.25;;;10.92;85.33
5455;BME280;2750;49.050;9.250;2023-04-25T02:05:34;98098.47;;;10.87;85.39
5455;BME280;2750;49.050;9.250;2023-04-25T02:10:38;98095.03;;;11.00;85.18
5455;BME280;2750;49.050;9.250;2023-04-25T02:15:39;98094.41;;;10.97;84.86
5455;BME280;2750;49.050;9.250;2023-04-25T02:20:41;98096.00;;;11.14;84.45
5455;BME280;2750;49.050;9.250;2023-04-25T02:25:44;98096.41;;;10.78;85.08
5455;BME280;2750;49.050;9.250;2023-04-25T02:30:45;98094.69;;;11.21;84.07
5455;BME280;2750;49.050;9.250;2023-04-25T02:35:47;98091.38;;;11.19;84.64
5455;BME280;2750;49.050;9.250;2023-04-25T02:40:50;98083.56;;;11.04;85.15
5455;BME280;2750;49.050;9.250;2023-04-25T02:45:51;98091.72;;;11.13;85.00
5455;BME280;2750;49.050;9.250;2023-04-25T02:50:52;98084.28;;;10.92;85.45
5455;BME280;2750;49.050;9.250;2023-04-25T02:55:55;98077.25;;;10.94;85.58
5455;BME280;2750;49.050;9.250;2023-04-25T03:00:58;98084.66;;;11.00;85.88
5455;BME280;2750;49.050;9.250;2023-04-25T03:06:00;98070.13;;;11.12;85.63
5455;BME280;2750;49.050;9.250;2023-04-25T03:11:03;98074.47;;;11.12;85.88
5455;BME280;2750;49.050;9.250;2023-04-25T03:16:05;98070.50;;;11.34;85.10
5455;BME280;2750;49.050;9.250;2023-04-25T03:21:07;98070.59;;;11.19;85.55
5455;BME280;2750;49.050;9.250;2023-04-25T03:26:10;98078.19;;;11.08;85.67
5455;BME280;2750;49.050;9.250;2023-04-25T03:31:11;98069.47;;;10.94;86.23
5455;BME280;2750;49.050;9.250;2023-04-25T03:36:12;98076.72;;;11.03;85.66
5455;BME280;2750;49.050;9.250;2023-04-25T03:41:15;98077.53;;;11.04;85.81
5455;BME280;2750;49.050;9.250;2023-04-25T03:46:17;98069.09;;;11.29;84.93
5455;BME280;2750;49.050;9.250;2023-04-25T03:51:18;98074.84;;;11.20;85.84
5455;BME280;2750;49.050;9.250;2023-04-25T03:56:21;98072.72;;;11.12;86.10
5455;BME280;2750;49.050;9.250;2023-04-25T04:01:23;98075.78;;;11.33;86.34
5455;BME280;2750;49.050;9.250;2023-04-25T04:06:24;98077.00;;;11.41;86.03
5455;BME280;2750;49.050;9.250;2023-04-25T04:11:27;98084.59;;;11.02;86.82
5455;BME280;2750;49.050;9.250;2023-04-25T04:16:28;98080.94;;;11.47;85.58
5455;BME280;2750;49.050;9.250;2023-04-25T04:21:30;98085.59;;;11.56;84.87
5455;BME280;2750;49.050;9.250;2023-04-25T04:26:33;98087.66;;;11.37;85.30
5455;BME280;2750;49.050;9.250;2023-04-25T04:31:35;98092.19;;;11.05;85.18
5455;BME280;2750;49.050;9.250;2023-04-25T04:36:37;98096.63;;;10.59;86.58
5455;BME280;2750;49.050;9.250;2023-04-25T04:41:41;98097.94;;;10.66;86.47
5455;BME280;2750;49.050;9.250;2023-04-25T04:46:43;98093.59;;;10.67;86.57
5455;BME280;2750;49.050;9.250;2023-04-25T04:51:44;98103.34;;;10.77;86.15
5455;BME280;2750;49.050;9.250;2023-04-25T04:56:47;98106.53;;;10.96;86.26
5455;BME280;2750;49.050;9.250;2023-04-25T05:01:49;98121.69;;;11.18;85.44
5455;BME280;2750;49.050;9.250;2023-04-25T05:06:51;98116.03;;;10.68;86.24
5455;BME280;2750;49.050;9.250;2023-04-25T05:11:53;98121.53;;;10.47;87.93
5455;BME280;2750;49.050;9.250;2023-04-25T05:16:55;98127.88;;;10.58;87.40
5455;BME280;2750;49.050;9.250;2023-04-25T05:21:56;98117.63;;;10.25;89.32
5455;BME280;2750;49.050;9.250;2023-04-25T05:26:59;98119.47;;;10.68;87.02
5455;BME280;2750;49.050;9.250;2023-04-25T05:32:00;98131.81;;;10.49;87.88
5455;BME280;2750;49.050;9.250;2023-04-25T05:37:02;98139.78;;;10.76;88.03
5455;BME280;2750;49.050;9.250;2023-04-25T05:42:05;98143.25;;;10.90;87.22
5455;BME280;2750;49.050;9.250;2023-04-25T05:47:07;98128.00;;;11.28;85.50
5455;BME280;2750;49.050;9.250;2023-04-25T05:52:08;98130.78;;;11.39;85.60
5455;BME280;2750;49.050;9.250;2023-04-25T05:57:19;98124.66;;;11.69;84.00
5455;BME280;2750;49.050;9.250;2023-04-25T06:02:21;98124.53;;;11.98;83.35
5455;BME280;2750;49.050;9.250;2023-04-25T06:07:23;98127.63;;;12.71;81.69
5455;BME280;2750;49.050;9.250;2023-04-25T06:12:26;98125.59;;;13.27;78.49
5455;BME280;2750;49.050;9.250;2023-04-25T06:17:28;98128.56;;;12.95;79.18
5455;BME280;2750;49.050;9.250;2023-04-25T06:22:29;98131.97;;;13.10;78.18
5455;BME280;2750;49.050;9.250;2023-04-25T06:27:32;98135.53;;;13.22;78.88
5455;BME280;2750;49.050;9.250;2023-04-25T06:32:33;98123.22;;;13.36;78.91
5455;BME280;2750;49.050;9.250;2023-04-25T06:37:35;98124.25;;;13.34;77.61
5455;BME280;2750;49.050;9.250;2023-04-25T06:42:38;98116.81;;;13.66;76.44
5455;BME280;2750;49.050;9.250;2023-04-25T06:47:40;98111.38;;;14.76;74.15
5455;BME280;2750;49.050;9.250;2023-04-25T06:52:41;98124.22;;;14.08;74.73
5455;BME280;2750;49.050;9.250;2023-04-25T06:57:44;98132.34;;;13.04;77.15
5455;BME280;2750;49.050;9.250;2023-04-25T07:02:45;98136.88;;;12.75;78.84
5455;BME280;2750;49.050;9.250;2023-04-25T07:07:47;98139.53;;;12.49;80.01
5455;BME280;2750;49.050;9.250;2023-04-25T07:12:52;98145.78;;;12.59;80.78
5455;BME280;2750;49.050;9.250;2023-04-25T07:17:54;98147.88;;;11.72;83.41
5455;BME280;2750;49.050;9.250;2023-04-25T07:22:56;98149.56;;;12.14;82.91
5455;BME280;2750;49.050;9.250;2023-04-25T07:27:58;98159.41;;;12.09;83.30
5455;BME280;2750;49.050;9.250;2023-04-25T07:33:00;98155.28;;;12.33;83.26
5455;BME280;2750;49.050;9.250;2023-04-25T07:38:02;98158.06;;;11.89;83.93
5455;BME280;2750;49.050;9.250;2023-04-25T07:43:05;98167.66;;;12.56;82.06
5455;BME280;2750;49.050;9.250;2023-04-25T07:48:06;98167.16;;;12.76;80.15
5455;BME280;2750;49.050;9.250;2023-04-25T07:53:08;98174.81;;;12.79;79.20
5455;BME280;2750;49.050;9.250;2023-04-25T07:58:11;98178.47;;;12.89;77.69
5455;BME280;2750;49.050;9.250;2023-04-25T08:03:14;98178.91;;;13.09;78.05
5455;BME280;2750;49.050;9.250;2023-04-25T08:08:15;98178.38;;;13.04;78.19
5455;BME280;2750;49.050;9.250;2023-04-25T08:13:18;98184.41;;;12.91;79.22
5455;BME280;2750;49.050;9.250;2023-04-25T08:18:20;98195.75;;;12.90;76.60
5455;BME280;2750;49.050;9.250;2023-04-25T08:23:22;98200.63;;;12.82;76.89
5455;BME280;2750;49.050;9.250;2023-04-25T08:28:25;98204.41;;;12.91;77.10
5455;BME280;2750;49.050;9.250;2023-04-25T08:33:27;98214.75;;;12.25;79.01
5455;BME280;2750;49.050;9.250;2023-04-25T08:38:28;98217.59;;;13.15;76.79
5455;BME280;2750;49.050;9.250;2023-04-25T08:43:32;98223.06;;;13.37;76.58
5455;BME280;2750;49.050;9.250;2023-04-25T08:48:34;98228.25;;;14.13;74.64
5455;BME280;2750;49.050;9.250;2023-04-25T08:53:36;98233.78;;;13.20;77.26
5455;BME280;2750;49.050;9.250;2023-04-25T08:58:39;98237.00;;;14.24;74.47
5455;BME280;2750;49.050;9.250;2023-04-25T09:03:41;98246.78;;;13.20;79.08
5455;BME280;2750;49.050;9.250;2023-04-25T09:08:43;98257.66;;;12.32;80.25
5455;BME280;2750;49.050;9.250;2023-04-25T09:13:46;98252.03;;;13.32;79.91
5455;BME280;2750;49.050;9.250;2023-04-25T09:18:47;98259.91;;;13.70;78.29
5455;BME280;2750;49.050;9.250;2023-04-25T09:23:49;98260.63;;;14.10;77.33
5455;BME280;2750;49.050;9.250;2023-04-25T09:29:04;98261.88;;;14.17;75.48
5455;BME280;2750;49.050;9.250;2023-04-25T09:34:06;98262.69;;;15.84;71.41
5455;BME280;2750;49.050;9.250;2023-04-25T09:39:12;98271.78;;;15.56;72.62
5455;BME280;2750;49.050;9.250;2023-04-25T09:44:23;98274.13;;;15.94;70.63
5455;BME280;2750;49.050;9.250;2023-04-25T09:49:25;98296.88;;;14.64;73.62
5455;BME280;2750;49.050;9.250;2023-04-25T09:54:27;98317.09;;;9.95;88.60
5455;BME280;2750;49.050;9.250;2023-04-25T09:59:31;98338.84;;;9.58;92.74
5455;BME280;2750;49.050;9.250;2023-04-25T10:04:35;98347.13;;;9.47;93.38
5455;BME280;2750;49.050;9.250;2023-04-25T10:09:38;98348.78;;;10.17;90.38
5455;BME280;2750;49.050;9.250;2023-04-25T10:14:42;98352.13;;;10.83;89.87
5455;BME280;2750;49.050;9.250;2023-04-25T10:19:43;98352.00;;;11.77;88.71
5455;BME280;2750;49.050;9.250;2023-04-25T10:24:46;98351.13;;;12.63;87.21
5455;BME280;2750;49.050;9.250;2023-04-25T10:30:00;98348.59;;;13.17;85.02
5455;BME280;2750;49.050;9.250;2023-04-25T10:35:13;98352.97;;;13.43;84.67
5455;BME280;2750;49.050;9.250;2023-04-25T10:40:21;98355.34;;;12.92;84.58
5455;BME280;2750;49.050;9.250;2023-04-25T10:45:25;98358.00;;;12.36;87.63
5455;BME280;2750;49.050;9.250;2023-04-25T10:50:37;98367.50;;;12.37;88.91
5455;BME280;2750;49.050;9.250;2023-04-25T10:55:49;98366.16;;;12.58;89.15
5455;BME280;2750;49.050;9.250;2023-04-25T11:00:53;98370.38;;;12.18;91.30
5455;BME280;2750;49.050;9.250;2023-04-25T11:05:54;98380.44;;;11.65;93.59
5455;BME280;2750;49.050;9.250;2023-04-25T11:10:56;98381.09;;;11.84;92.81
5455;BME280;2750;49.050;9.250;2023-04-25T11:15:59;98373.63;;;12.36;88.45
5455;BME280;2750;49.050;9.250;2023-04-25T11:21:00;98370.56;;;12.43;89.91
5455;BME280;2750;49.050;9.250;2023-04-25T11:26:03;98380.75;;;12.75;89.19
5455;BME280;2750;49.050;9.250;2023-04-25T11:31:07;98384.38;;;13.94;87.77
5455;BME280;2750;49.050;9.250;2023-04-25T11:36:10;98372.50;;;14.02;86.54
5455;BME280;2750;49.050;9.250;2023-04-25T11:41:11;98370.28;;;14.34;83.92
5455;BME280;2750;49.050;9.250;2023-04-25T11:46:15;98381.63;;;14.47;85.40
5455;BME280;2750;49.050;9.250;2023-04-25T11:51:16;98382.53;;;14.46;84.90
5455;BME280;2750;49.050;9.250;2023-04-25T11:56:18;98391.00;;;13.72;87.06
5455;BME280;2750;49.050;9.250;2023-04-25T12:01:27;98391.19;;;13.69;87.69
5455;BME280;2750;49.050;9.250;2023-04-25T12:06:29;98398.69;;;13.61;86.88
5455;BME280;2750;49.050;9.250;2023-04-25T12:11:31;98385.84;;;14.23;82.94
5455;BME280;2750;49.050;9.250;2023-04-25T12:16:41;98397.16;;;14.74;81.78
5455;BME280;2750;49.050;9.250;2023-04-25T12:21:44;98393.38;;;14.78;81.20
5455;BME280;2750;49.050;9.250;2023-04-25T12:26:50;98395.59;;;14.59;81.24
5455;BME280;2750;49.050;9.250;2023-04-25T12:31:55;98407.63;;;14.36;84.10
5455;BME280;2750;49.050;9.250;2023-04-25T12:36:57;98410.44;;;14.46;84.49
5455;BME280;2750;49.050;9.250;2023-04-25T12:42:01;98417.09;;;14.24;83.88
5455;BME280;2750;49.050;9.250;2023-04-25T12:47:05;98414.91;;;14.81;82.82
5455;BME280;2750;49.050;9.250;2023-04-25T12:52:07;98413.38;;;15.03;82.34
5455;BME280;2750;49.050;9.250;2023-04-25T12:57:09;98419.22;;;15.06;81.17
5455;BME280;2750;49.050;9.250;2023-04-25T13:02:14;98413.25;;;15.53;79.51
5455;BME280;2750;49.050;9.250;2023-04-25T13:07:16;98414.66;;;14.34;80.52
5455;BME280;2750;49.050;9.250;2023-04-25T13:12:17;98422.63;;;14.45;81.01
5455;BME280;2750;49.050;9.250;2023-04-25T13:17:20;98412.63;;;14.39;80.07
5455;BME280;2750;49.050;9.250;2023-04-25T13:22:21;98420.00;;;14.20;76.34
5455;BME280;2750;49.050;9.250;2023-04-25T13:27:23;98412.47;;;14.03;73.20
5455;BME280;2750;49.050;9.250;2023-04-25T13:32:26;98422.19;;;14.13;76.71
5455;BME280;2750;49.050;9.250;2023-04-25T13:37:27;98417.97;;;15.12;73.85
5455;BME280;2750;49.050;9.250;2023-04-25T13:42:30;98413.66;;;14.74;73.00
5455;BME280;2750;49.050;9.250;2023-04-25T13:47:33;98427.97;;;14.81;70.46
5455;BME280;2750;49.050;9.250;2023-04-25T13:52:35;98424.94;;;14.62;71.58
5455;BME280;2750;49.050;9.250;2023-04-25T13:57:37;98430.16;;;14.62;68.80
5455;BME280;2750;49.050;9.250;2023-04-25T14:02:39;98433.88;;;15.09;69.53
5455;BME280;2750;49.050;9.250;2023-04-25T14:07:41;98424.84;;;14.64;70.98
5455;BME280;2750;49.050;9.250;2023-04-25T14:12:43;98433.19;;;14.69;71.66
5455;BME280;2750;49.050;9.250;2023-04-25T14:17:45;98431.00;;;14.50;71.19
5455;BME280;2750;49.050;9.250;2023-04-25T14:22:48;98438.91;;;13.57;71.52
5455;BME280;2750;49.050;9.250;2023-04-25T14:27:50;98440.16;;;13.78;74.29
5455;BME280;2750;49.050;9.250;2023-04-25T14:32:53;98441.22;;;13.88;73.88
5455;BME280;2750;49.050;9.250;2023-04-25T14:37:55;98437.22;;;14.22;72.91
5455;BME280;2750;49.050;9.250;2023-04-25T14:42:57;98442.03;;;14.92;73.83
5455;BME280;2750;49.050;9.250;2023-04-25T14:47:59;98442.59;;;15.33;70.03
5455;BME280;2750;49.050;9.250;2023-04-25T14:53:01;98451.88;;;15.01;74.56
5455;BME280;2750;49.050;9.250;2023-04-25T14:58:02;98458.34;;;14.95;72.63
5455;BME280;2750;49.050;9.250;2023-04-25T15:03:05;98465.50;;;14.68;74.69
5455;BME280;2750;49.050;9.250;2023-04-25T15:08:07;98465.25;;;14.96;71.73
5455;BME280;2750;49.050;9.250;2023-04-25T15:13:09;98454.91;;;15.91;71.24
5455;BME280;2750;49.050;9.250;2023-04-25T15:18:13;98457.16;;;15.85;69.58
5455;BME280;2750;49.050;9.250;2023-04-25T15:23:15;98456.66;;;15.79;65.17
5455;BME280;2750;49.050;9.250;2023-04-25T15:28:17;98464.78;;;17.57;62.30
5455;BME280;2750;49.050;9.250;2023-04-25T15:33:20;98474.44;;;16.22;62.14
5455;BME280;2750;49.050;9.250;2023-04-25T15:38:21;98478.28;;;15.21;63.50
5455;BME280;2750;49.050;9.250;2023-04-25T15:43:23;98475.59;;;14.98;64.18
5455;BME280;2750;49.050;9.250;2023-04-25T15:48:26;98490.22;;;15.13;64.28
5455;BME280;2750;49.050;9.250;2023-04-25T15:53:27;98487.63;;;14.62;63.35
5455;BME280;2750;49.050;9.250;2023-04-25T15:58:29;98485.47;;;14.29;63.77
5455;BME280;2750;49.050;9.250;2023-04-25T16:03:32;98485.28;;;14.45;63.57
5455;BME280;2750;49.050;9.250;2023-04-25T16:08:33;98485.13;;;14.73;62.08
5455;BME280;2750;49.050;9.250;2023-04-25T16:13:35;98482.91;;;14.03;61.50
5455;BME280;2750;49.050;9.250;2023-04-25T16:18:38;98484.28;;;14.48;61.30
5455;BME280;2750;49.050;9.250;2023-04-25T16:23:40;98484.88;;;14.39;60.89
5455;BME280;2750;49.050;9.250;2023-04-25T16:28:41;98496.00;;;14.28;61.77
5455;BME280;2750;49.050;9.250;2023-04-25T16:33:44;98497.22;;;14.10;63.85
5455;BME280;2750;49.050;9.250;2023-04-25T16:38:45;98506.63;;;13.85;64.88
5455;BME280;2750;49.050;9.250;2023-04-25T16:43:47;98506.66;;;13.30;66.17
5455;BME280;2750;49.050;9.250;2023-04-25T16:48:50;98509.91;;;13.06;67.67
5455;BME280;2750;49.050;9.250;2023-04-25T16:53:51;98519.66;;;12.88;68.96
5455;BME280;2750;49.050;9.250;2023-04-25T16:58:53;98533.88;;;12.24;71.93
5455;BME280;2750;49.050;9.250;2023-04-25T17:03:56;98537.53;;;11.90;74.97
5455;BME280;2750;49.050;9.250;2023-04-25T17:08:57;98537.19;;;11.65;76.27
5455;BME280;2750;49.050;9.250;2023-04-25T17:13:59;98553.59;;;11.50;77.08
5455;BME280;2750;49.050;9.250;2023-04-25T17:19:03;98554.38;;;11.52;78.93
5455;BME280;2750;49.050;9.250;2023-04-25T17:24:05;98564.41;;;11.42;80.45
5455;BME280;2750;49.050;9.250;2023-04-25T17:29:08;98567.19;;;11.55;80.87
5455;BME280;2750;49.050;9.250;2023-04-25T17:34:12;98565.03;;;11.63;79.93
5455;BME280;2750;49.050;9.250;2023-04-25T17:39:17;98572.53;;;11.36;78.80
5455;BME280;2750;49.050;9.250;2023-04-25T17:44:19;98586.16;;;11.57;79.77
5455;BME280;2750;49.050;9.250;2023-04-25T17:49:22;98585.00;;;11.78;78.46
5455;BME280;2750;49.050;9.250;2023-04-25T17:54:23;98588.47;;;11.46;78.36
5455;BME280;2750;49.050;9.250;2023-04-25T17:59:25;98591.47;;;11.06;81.61
5455;BME280;2750;49.050;9.250;2023-04-25T18:04:28;98595.94;;;11.19;82.47
5455;BME280;2750;49.050;9.250;2023-04-25T18:09:30;98599.44;;;11.02;82.38
5455;BME280;2750;49.050;9.250;2023-04-25T18:14:31;98611.50;;;10.86;83.43
5455;BME280;2750;49.050;9.250;2023-04-25T18:19:36;98616.47;;;11.41;82.03
5455;BME280;2750;49.050;9.250;2023-04-25T18:24:37;98627.84;;;11.38;82.11
5455;BME280;2750;49.050;9.250;2023-04-25T18:29:39;98631.88;;;10.94;83.21
5455;BME280;2750;49.050;9.250;2023-04-25T18:34:42;98640.06;;;11.03;83.79
5455;BME280;2750;49.050;9.250;2023-04-25T18:39:46;98649.81;;;10.98;83.77
5455;BME280;2750;49.050;9.250;2023-04-25T18:44:47;98657.53;;;11.00;83.91
5455;BME280;2750;49.050;9.250;2023-04-25T18:49:51;98667.84;;;11.19;82.51
5455;BME280;2750;49.050;9.250;2023-04-25T18:54:53;98668.66;;;11.19;82.90
5455;BME280;2750;49.050;9.250;2023-04-25T18:59:54;98673.91;;;11.35;82.67
5455;BME280;2750;49.050;9.250;2023-04-25T19:04:57;98673.91;;;11.52;81.82
5455;BME280;2750;49.050;9.250;2023-04-25T19:09:58;98690.41;;;11.51;81.94
5455;BME280;2750;49.050;9.250;2023-04-25T19:15:00;98689.66;;;11.49;81.40
5455;BME280;2750;49.050;9.250;2023-04-25T19:20:04;98696.53;;;11.33;81.87
5455;BME280;2750;49.050;9.250;2023-04-25T19:25:06;98702.06;;;11.27;82.08
5455;BME280;2750;49.050;9.250;2023-04-25T19:30:09;98713.97;;;11.14;82.30
5455;BME280;2750;49.050;9.250;2023-04-25T19:35:12;98710.69;;;11.10;83.16
5455;BME280;2750;49.050;9.250;2023-04-25T19:40:14;98716.72;;;11.11;83.49
5455;BME280;2750;49.050;9.250;2023-04-25T19:45:16;98714.81;;;11.14;83.15
5455;BME280;2750;49.050;9.250;2023-04-25T19:50:19;98707.69;;;11.35;82.95
5455;BME280;2750;49.050;9.250;2023-04-25T19:55:21;98723.06;;;11.05;83.32
5455;BME280;2750;49.050;9.250;2023-04-25T20:00:22;98711.50;;;11.45;82.45
5455;BME280;2750;49.050;9.250;2023-04-25T20:05:25;98720.28;;;11.42;82.56
5455;BME280;2750;49.050;9.250;2023-04-25T20:10:27;98723.06;;;11.05;83.74
5455;BME280;2750;49.050;9.250;2023-04-25T20:15:28;98725.09;;;11.16;83.27
5455;BME280;2750;49.050;9.250;2023-04-25T20:20:32;98724.97;;;10.84;83.97
5455;BME280;2750;49.050;9.250;2023-04-25T20:25:33;98740.38;;;10.87;83.30
5455;BME280;2750;49.050;9.250;2023-04-25T20:30:35;98733.75;;;10.99;82.91
5455;BME280;2750;49.050;9.250;2023-04-25T20:35:38;98742.34;;;10.82;83.13
5455;BME280;2750;49.050;9.250;2023-04-25T20:40:39;98748.22;;;10.86;84.45
5455;BME280;2750;49.050;9.250;2023-04-25T20:45:41;98744.44;;;11.10;83.71
5455;BME280;2750;49.050;9.250;2023-04-25T20:50:43;98750.31;;;11.14;82.88
5455;BME280;2750;49.050;9.250;2023-04-25T20:55:45;98751.13;;;10.80;83.74
5455;BME280;2750;49.050;9.250;2023-04-25T21:00:47;98751.34;;;10.75;83.47
5455;BME280;2750;49.050;9.250;2023-04-25T21:05:51;98748.06;;;10.89;83.32
5455;BME280;2750;49.050;9.250;2023-04-25T21:10:52;98758.38;;;10.90;82.83
5455;BME280;2750;49.050;9.250;2023-04-25T21:15:54;98728.00;;;10.92;82.07
5455;BME280;2750;49.050;9.250;2023-04-25T21:20:57;98740.66;;;10.81;82.79
5455;BME280;2750;49.050;9.250;2023-04-25T21:25:58;98742.78;;;10.73;82.97
5455;BME280;2750;49.050;9.250;2023-04-25T21:31:00;98744.63;;;10.71;84.24
5455;BME280;2750;49.050;9.250;2023-04-25T21:36:03;98756.34;;;10.97;82.68
5455;BME280;2750;49.050;9.250;2023-04-25T21:41:05;98763.78;;;10.86;83.13
5455;BME280;2750;49.050;9.250;2023-04-25T21:46:06;98758.66;;;10.67;83.28
5455;BME280;2750;49.050;9.250;2023-04-25T21:51:09;98766.19;;;10.90;82.45
5455;BME280;2750;49.050;9.250;2023-04-25T21:56:11;98774.38;;;11.17;81.57
5455;BME280;2750;49.050;9.250;2023-04-25T22:01:12;98780.25;;;11.03;82.21
5455;BME280;2750;49.050;9.250;2023-04-25T22:06:16;98775.59;;;11.10;81.73
5455;BME280;2750;49.050;9.250;2023-04-25T22:11:17;98779.94;;;11.10;82.25
5455;BME280;2750;49.050;9.250;2023-04-25T22:16:19;98789.13;;;10.99;82.20
5455;BME280;2750;49.050;9.250;2023-04-25T22:21:21;98785.97;;;10.74;82.80
5455;BME280;2750;49.050;9.250;2023-04-25T22:26:23;98784.97;;;10.60;82.83
5455;BME280;2750;49.050;9.250;2023-04-25T22:31:26;98797.94;;;10.41;83.18
5455;BME280;2750;49.050;9.250;2023-04-25T22:36:29;98798.69;;;10.43;82.85
5455;BME280;2750;49.050;9.250;2023-04-25T22:41:30;98793.84;;;10.35;83.27
5455;BME280;2750;49.050;9.250;2023-04-25T22:46:32;98806.25;;;10.29;84.22
5455;BME280;2750;49.050;9.250;2023-04-25T22:51:35;98804.56;;;10.28;83.86
5455;BME280;2750;49.050;9.250;2023-04-25T22:56:37;98814.13;;;10.07;84.68
5455;BME280;2750;49.050;9.250;2023-04-25T23:01:38;98811.25;;;10.15;85.02
5455;BME280;2750;49.050;9.250;2023-04-25T23:06:41;98821.22;;;9.83;86.08
5455;BME280;2750;49.050;9.250;2023-04-25T23:11:42;98819.38;;;9.85;86.10
5455;BME280;2750;49.050;9.250;2023-04-25T23:16:44;98817.31;;;9.93;85.15
5455;BME280;2750;49.050;9.250;2023-04-25T23:21:47;98813.28;;;10.06;84.84
5455;BME280;2750;49.050;9.250;2023-04-25T23:26:49;98824.19;;;9.74;86.10
5455;BME280;2750;49.050;9.250;2023-04-25T23:31:51;98826.25;;;9.66;85.79
5455;BME280;2750;49.050;9.250;2023-04-25T23:36:53;98831.19;;;9.52;86.53
5455;BME280;2750;49.050;9.250;2023-04-25T23:41:55;98836.94;;;9.58;85.96
5455;BME280;2750;49.050;9.250;2023-04-25T23:46:57;98820.84;;;9.72;85.23
5455;BME280;2750;49.050;9.250;2023-04-25T23:51:59;98824.66;;;9.84;85.09
5455;BME280;2750;49.050;9.250;2023-04-25T23:57:01;98834.03;;;9.66;85.78
